PAEN/ENA METAR and TAF weather

Enter ICAO airport designator
Station Type Date Time Source
PAEN METAR 2022/01/26 13:53 UTC NOAA

PAEN 261353Z AUTO 36003KT 10SM CLR M12/M13 A3024 RMK AO2 SLP245 T11221128 TSNO


Station Type Date Time Source
PAEN Decoded METAR 2022/01/26 13:53 UTC NOAA

KENAI MUNICIPAL AIRPORT, AK, United States (PAEN) 60-35N 151-14W 25M
Jan 26, 2022 - 08:53 AM EST / 2022.01.26 1353 UTC
Wind: from the N (360 degrees) at 3 MPH (3 KT):0
Visibility: 10 mile(s):0
Sky conditions: clear
Temperature: 10.0 F (-12.2 C)
Dew Point: 9.0 F (-12.8 C)
Relative Humidity: 95%
Pressure (altimeter): 30.24 in. Hg (1024 hPa)
ob: PAEN 261353Z AUTO 36003KT 10SM CLR M12/M13 A3024 RMK AO2 SLP245 T11221128 TSNO
cycle: 14

Station Type Date Time Source
PAEN TAF 2022/01/26 12:39 UTC NOAA

TAF PAEN 261136Z 2612/2712 01008KT P6SM SCT040 OVC200
TEMPO 2614/2618 BKN050 OVC150
FM270800 03008KT 5SM -SN BR OVC025

Example: see airport list